Time;durP1;ratioP1;P1;durP2;ratioP2;P2;SDS_P1;SDS_P2;PMS_P1;PMS_P2;Temp;Humidity;BMP_temperature;BMP_pressure;BME280_temperature;BME280_humidity;BME280_pressure;Samples;Min_cycle;Max_cycle;Signal;HPM_P1;HPM_P2
2022/07/26 00:00:18;;;;;;;13.98;12.50;;;;;;;30.98;70.65;100747.38;4959265;28;67477;-31
2022/07/26 00:02:50;;;;;;;15.80;12.10;;;;;;;31.00;71.79;100758.78;4955602;28;69244;-31
2022/07/26 00:05:21;;;;;;;13.60;12.25;;;;;;;31.03;71.11;100769.16;5023157;28;64848;-29
2022/07/26 00:08:09;;;;;;;13.53;12.30;;;;;;;31.04;70.88;100765.44;5022920;28;69070;-30
2022/07/26 00:10:47;;;;;;;14.15;12.93;;;;;;;30.50;71.30;100669.47;4958309;28;65819;-30
2022/07/26 00:13:19;;;;;;;17.60;13.05;;;;;;;31.10;71.44;100769.13;4969143;28;70016;-31
2022/07/26 00:15:50;;;;;;;;;;;;;;;30.91;73.31;100789.94;4960120;28;66464;-31
2022/07/26 00:18:21;;;;;;;17.50;13.50;;;;;;;31.19;71.76;100781.31;4958871;28;70450;-30
2022/07/26 00:20:52;;;;;;;15.32;13.60;;;;;;;31.23;72.36;100785.25;4961629;28;66187;-30
2022/07/26 00:23:24;;;;;;;15.70;13.10;;;;;;;31.26;72.34;100783.94;5014245;28;69622;-28
2022/07/26 00:25:55;;;;;;;18.13;12.40;;;;;;;31.35;70.48;100788.03;4957429;28;67527;-30
2022/07/26 00:28:26;;;;;;;11.00;10.00;;;;;;;31.42;68.88;100791.50;4953009;28;70423;-29
2022/07/26 00:30:57;;;;;;;11.00;10.15;;;;;;;31.48;68.65;100789.78;4949584;28;65968;-29
2022/07/26 00:33:28;;;;;;;18.50;15.03;;;;;;;31.51;71.83;100784.75;4956351;28;69331;-31
2022/07/26 00:35:58;;;;;;;20.58;15.40;;;;;;;31.56;71.42;100781.34;4956219;28;65518;-30
2022/07/26 00:38:29;;;;;;;19.92;15.25;;;;;;;31.54;71.63;100772.63;4954135;28;69466;-30
2022/07/26 00:41:00;;;;;;;37.80;15.60;;;;;;;31.57;71.95;100794.69;4957943;28;66195;-30
2022/07/26 00:43:31;;;;;;;16.65;13.30;;;;;;;31.55;71.40;100794.06;4958050;28;70558;-30
2022/07/26 00:46:03;;;;;;;;;;;;;;;31.20;72.79;100788.38;4957344;28;66460;-31
2022/07/26 00:48:34;;;;;;;16.38;11.93;;;;;;;31.54;70.06;100794.31;4960109;28;70754;-31
2022/07/26 00:51:04;;;;;;;12.50;11.48;;;;;;;31.63;69.66;100786.69;4950224;28;66227;-30
2022/07/26 00:53:35;;;;;;;14.55;10.85;;;;;;;31.69;69.37;100785.78;4957120;28;70884;-31
2022/07/26 00:56:06;;;;;;;12.75;11.52;;;;;;;31.74;68.94;100775.06;4957442;28;66321;-30
2022/07/26 00:58:37;;;;;;;12.18;10.98;;;;;;;31.77;68.86;100782.75;4956678;28;70385;-30
2022/07/26 01:01:09;;;;;;;12.60;10.70;;;;;;;31.77;68.45;100761.06;4952561;28;66769;-31
2022/07/26 01:03:41;;;;;;;22.73;10.90;;;;;;;31.41;68.14;100711.25;4955110;28;69150;-31
2022/07/26 01:06:12;;;;;;;11.98;11.15;;;;;;;31.89;67.98;100786.31;4955863;28;65618;-30
2022/07/26 01:08:43;;;;;;;13.05;11.70;;;;;;;31.93;67.94;100792.16;4959147;28;69979;-30
2022/07/26 01:11:14;;;;;;;12.97;11.90;;;;;;;31.93;67.88;100786.72;4952743;28;66153;-29
2022/07/26 01:13:49;;;;;;;11.45;10.45;;;;;;;31.32;67.56;100696.34;4956762;28;69402;-30
2022/07/26 01:16:20;;;;;;;12.48;11.25;;;;;;;31.99;67.69;100802.94;4956298;28;65309;-30
2022/07/26 01:18:51;;;;;;;12.43;10.93;;;;;;;32.01;67.13;100806.25;4959283;28;70974;-30
2022/07/26 01:21:22;;;;;;;11.80;10.70;;;;;;;31.98;66.97;100798.56;4952306;28;66097;-30
2022/07/26 01:23:53;;;;;;;11.23;10.30;;;;;;;32.05;67.10;100804.72;4958437;28;70003;-30
2022/07/26 01:26:24;;;;;;;14.70;11.45;;;;;;;32.01;66.98;100806.25;4952338;28;66320;-30
2022/07/26 01:28:55;;;;;;;11.55;10.55;;;;;;;32.05;66.86;100810.13;4957840;28;70468;-30
2022/07/26 01:31:25;;;;;;;11.52;10.55;;;;;;;32.09;66.69;100823.25;4959895;28;65547;-30
2022/07/26 01:33:57;;;;;;;13.77;10.83;;;;;;;32.10;66.52;100830.34;4952286;28;69895;-30
2022/07/26 01:36:28;;;;;;;12.20;10.13;;;;;;;32.11;66.42;100826.56;4955507;28;65657;-30
2022/07/26 01:39:00;;;;;;;12.73;10.68;;;;;;;32.09;66.25;100828.66;4953982;28;69410;-30
2022/07/26 01:41:31;;;;;;;10.45;9.45;;;;;;;32.15;66.08;100831.31;4954818;28;65991;-30
2022/07/26 01:44:06;;;;;;;12.10;9.70;;;;;;;32.15;66.20;100833.16;4957025;28;70245;-29
2022/07/26 01:46:38;;;;;;;10.32;9.57;;;;;;;32.18;65.88;100832.72;4959245;28;66091;-30
2022/07/26 01:49:08;;;;;;;11.20;10.10;;;;;;;32.22;65.75;100833.91;4958380;28;70178;-30
2022/07/26 01:51:40;;;;;;;10.43;9.63;;;;;;;32.23;65.60;100835.56;4953712;28;65997;-30
2022/07/26 01:54:12;;;;;;;9.73;8.95;;;;;;;32.14;65.35;100812.53;4953896;28;70375;-31
2022/07/26 01:56:50;;;;;;;9.90;9.05;;;;;;;32.24;65.13;100823.66;4955113;28;65523;-31
2022/07/26 01:59:21;;;;;;;9.90;9.20;;;;;;;32.28;65.56;100824.84;4956741;28;69875;-31
2022/07/26 02:01:52;;;;;;;10.33;9.17;;;;;;;32.27;65.33;100825.91;4946474;28;65283;-29
2022/07/26 02:07:12;;;;;;;9.73;8.88;;;;;;;32.28;64.88;100827.56;4954043;28;66303;-30
2022/07/26 02:09:43;;;;;;;9.70;8.95;;;;;;;32.36;64.46;100829.94;4955754;28;69746;-30
2022/07/26 02:12:16;;;;;;;9.40;8.75;;;;;;;32.37;64.59;100826.16;4951731;28;65617;-29
2022/07/26 02:14:47;;;;;;;10.68;9.82;;;;;;;32.16;64.58;100786.00;4951636;28;69525;-30
2022/07/26 02:17:18;;;;;;;8.88;8.18;;;;;;;32.39;64.41;100821.34;4954923;28;66788;-30
2022/07/26 02:19:49;;;;;;;9.07;8.40;;;;;;;32.42;64.67;100820.88;4954777;28;69530;-30
2022/07/26 02:22:20;;;;;;;9.10;8.43;;;;;;;32.18;63.94;100784.72;4949655;28;66573;-31
2022/07/26 02:24:51;;;;;;;9.43;8.73;;;;;;;32.46;63.99;100824.81;4953991;28;71761;-30
2022/07/26 02:27:22;;;;;;;10.07;9.10;;;;;;;32.44;64.18;100824.19;5007121;28;65854;-30
2022/07/26 02:29:53;;;;;;;10.18;9.32;;;;;;;32.40;63.92;100820.28;4948448;28;70480;-30
2022/07/26 02:32:24;;;;;;;9.20;8.40;;;;;;;32.47;63.95;100831.91;4952299;28;66417;-31
2022/07/26 02:34:54;;;;;;;9.43;8.35;;;;;;;32.54;63.58;100841.81;4953520;28;70572;-30
2022/07/26 02:37:25;;;;;;;9.80;8.80;;;;;;;32.55;63.63;100838.06;4957736;28;65858;-30
2022/07/26 02:39:56;;;;;;;8.30;7.60;;;;;;;32.58;63.54;100840.31;4955430;28;69102;-31
2022/07/26 02:42:27;;;;;;;11.17;8.23;;;;;;;32.57;63.51;100846.78;4957903;28;66335;-30
2022/07/26 02:44:58;;;;;;;8.88;8.02;;;;;;;32.60;63.48;100849.06;4955744;28;70581;-30
2022/07/26 02:47:30;;;;;;;8.20;7.68;;;;;;;32.62;63.31;100844.19;4953279;28;66392;-30
2022/07/26 02:50:01;;;;;;;9.18;8.30;;;;;;;32.65;63.22;100838.31;4950070;28;70197;-30
2022/07/26 02:52:32;;;;;;;7.55;7.05;;;;;;;32.59;63.39;100828.38;4956287;28;66444;-30
2022/07/26 02:55:03;;;;;;;8.55;7.47;;;;;;;32.69;63.12;100842.22;5013279;28;70005;-31
2022/07/26 02:57:34;;;;;;;8.38;7.68;;;;;;;32.68;63.07;100846.84;4941782;28;67730;-29
2022/07/26 03:00:17;;;;;;;8.70;8.00;;;;;;;32.72;62.81;100849.91;4952888;28;69509;-31
2022/07/26 03:02:50;;;;;;;8.25;7.75;;;;;;;32.71;62.78;100842.81;4948717;28;66288;-31
2022/07/26 03:05:22;;;;;;;8.45;7.65;;;;;;;32.74;62.85;100842.34;4956392;28;69959;-29
2022/07/26 03:07:52;;;;;;;8.20;7.50;;;;;;;32.75;62.51;100844.00;4955304;28;66206;-30
2022/07/26 03:10:23;;;;;;;7.45;6.95;;;;;;;32.81;62.37;100845.78;4955541;28;70166;-29
2022/07/26 03:12:54;;;;;;;7.70;7.10;;;;;;;32.83;62.42;100840.94;4955141;28;66034;-30
2022/07/26 03:15:25;;;;;;;7.55;6.95;;;;;;;32.58;62.41;100796.88;4957340;28;70781;-31
2022/07/26 03:17:56;;;;;;;8.50;7.20;;;;;;;32.87;62.27;100846.72;4952800;28;65674;-31
2022/07/26 03:20:27;;;;;;;7.47;6.75;;;;;;;32.86;62.43;100845.91;4953592;28;70760;-31
2022/07/26 03:22:58;;;;;;;7.95;7.25;;;;;;;32.88;62.15;100849.22;4959050;28;65278;-31
2022/07/26 03:25:29;;;;;;;7.45;6.63;;;;;;;32.86;62.03;100824.16;4952291;28;70115;-30
2022/07/26 03:28:05;;;;;;;6.88;6.28;;;;;;;32.92;61.90;100849.56;4948783;28;65620;-30
2022/07/26 03:30:36;;;;;;;7.35;6.80;;;;;;;32.89;62.12;100826.41;4950684;28;69717;-31
2022/07/26 03:33:07;;;;;;;7.35;6.75;;;;;;;32.94;62.09;100839.28;4955658;28;67719;-30
2022/07/26 03:35:38;;;;;;;7.25;6.70;;;;;;;32.90;61.88;100828.09;4953214;28;70408;-30
2022/07/26 03:38:09;;;;;;;7.07;6.47;;;;;;;32.93;62.04;100832.19;4954656;28;65258;-29
2022/07/26 03:40:40;;;;;;;7.07;6.55;;;;;;;32.99;61.89;100833.13;4946867;28;70031;-30
2022/07/26 03:43:11;;;;;;;6.40;5.93;;;;;;;33.01;61.86;100833.75;4954957;28;66120;-30
2022/07/26 03:45:42;;;;;;;7.15;6.65;;;;;;;32.97;61.68;100824.41;4948921;28;69710;-29
2022/07/26 03:48:13;;;;;;;8.68;7.28;;;;;;;32.98;61.64;100821.44;4957154;28;65882;-31
2022/07/26 03:50:44;;;;;;;6.72;6.15;;;;;;;33.03;61.66;100818.88;4955128;28;69793;-31
2022/07/26 03:53:15;;;;;;;7.40;6.55;;;;;;;33.09;61.71;100826.09;4958589;28;66285;-31
2022/07/26 03:58:35;;;;;;;7.70;7.00;;;;;;;33.13;61.49;100818.31;4954895;28;65635;-30
2022/07/26 04:01:05;;;;;;;7.30;6.70;;;;;;;33.13;61.57;100829.19;4951090;28;70543;-31
2022/07/26 04:03:36;;;;;;;6.75;6.30;;;;;;;33.15;61.68;100829.75;4951806;28;66357;-31
2022/07/26 04:06:15;;;;;;;6.50;6.05;;;;;;;33.12;61.58;100814.72;4955464;28;70364;-30
2022/07/26 04:08:51;;;;;;;8.15;6.57;;;;;;;33.19;61.68;100820.06;4960397;28;65706;-30
2022/07/26 04:11:22;;;;;;;6.72;6.32;;;;;;;33.17;61.61;100803.16;4953863;28;69231;-29
2022/07/26 04:13:57;;;;;;;6.57;6.18;;;;;;;33.23;61.44;100802.19;4949911;28;66079;-30
2022/07/26 04:16:28;;;;;;;7.03;6.50;;;;;;;33.24;61.46;100800.31;4950288;28;69896;-30
2022/07/26 04:18:59;;;;;;;6.90;6.40;;;;;;;33.26;61.46;100796.28;4957424;28;66348;-31
2022/07/26 04:21:30;;;;;;;6.30;5.90;;;;;;;33.18;61.32;100772.19;4954891;28;69625;-29
2022/07/26 04:24:01;;;;;;;7.50;6.80;;;;;;;33.28;61.20;100783.28;4947643;28;67031;-29
2022/07/26 04:26:32;;;;;;;7.97;6.80;;;;;;;33.32;61.15;100783.63;4955512;28;69369;-30
2022/07/26 04:29:03;;;;;;;7.10;6.60;;;;;;;33.32;61.45;100780.91;4958743;28;65548;-30
2022/07/26 04:31:35;;;;;;;7.03;6.53;;;;;;;33.34;61.23;100768.72;4947927;28;70045;-30
2022/07/26 04:34:06;;;;;;;6.43;5.97;;;;;;;33.35;61.24;100781.28;4959439;28;65516;-31
2022/07/26 04:36:38;;;;;;;7.03;6.30;;;;;;;33.34;61.18;100766.00;4959460;28;70223;-31
2022/07/26 04:39:10;;;;;;;7.18;6.63;;;;;;;33.38;61.15;100761.75;4957446;28;66188;-30
2022/07/26 04:41:40;;;;;;;6.50;5.93;;;;;;;33.40;61.31;100763.41;5024286;28;70067;-31
2022/07/26 04:44:11;;;;;;;6.93;6.38;;;;;;;33.42;60.99;100761.28;4957399;28;65969;-30
2022/07/26 04:46:42;;;;;;;6.60;6.20;;;;;;;33.35;61.12;100750.56;4954218;28;69990;-30
2022/07/26 04:49:14;;;;;;;6.60;6.00;;;;;;;33.44;61.13;100753.72;4955368;28;66462;-30
2022/07/26 04:51:45;;;;;;;6.47;5.97;;;;;;;33.45;61.24;100755.34;5019960;28;69709;-32
2022/07/26 04:54:19;;;;;;;7.10;6.53;;;;;;;33.23;61.02;100704.34;4955597;28;65363;-31
2022/07/26 04:56:50;;;;;;;6.45;6.00;;;;;;;33.49;60.97;100740.19;4958578;28;70095;-30
2022/07/26 04:59:21;;;;;;;6.13;5.72;;;;;;;33.46;61.11;100740.69;4959300;28;65806;-31
2022/07/26 05:01:52;;;;;;;6.43;5.93;;;;;;;33.46;61.05;100727.09;4959097;28;70328;-30
2022/07/26 05:04:24;;;;;;;6.53;6.13;;;;;;;33.35;61.32;100732.34;4955212;28;65629;-30
2022/07/26 05:07:01;;;;;;;6.40;5.90;;;;;;;33.29;60.21;100719.72;4955755;28;71538;-31
2022/07/26 05:09:32;;;;;;;5.85;5.55;;;;;;;33.17;58.80;100713.47;4953270;28;66615;-31
2022/07/26 05:12:03;;;;;;;5.63;5.22;;;;;;;32.99;57.55;100689.97;4958502;28;68933;-32
2022/07/26 05:14:36;;;;;;;6.00;5.60;;;;;;;32.98;56.68;100695.63;4954833;28;65518;-31
2022/07/26 05:17:07;;;;;;;6.28;5.78;;;;;;;32.95;56.96;100686.06;4949032;28;70040;-31
2022/07/26 05:19:40;;;;;;;5.63;5.30;;;;;;;32.63;56.15;100644.91;4954496;28;66361;-30
2022/07/26 05:22:17;;;;;;;6.20;4.47;;;;;;;32.77;53.53;100681.63;4955518;28;70099;-29
2022/07/26 05:24:48;;;;;;;5.40;5.10;;;;;;;32.72;53.04;100678.78;4949711;28;66298;-30
2022/07/26 05:27:19;;;;;;;5.43;4.85;;;;;;;32.72;52.69;100676.88;4955015;28;70435;-30
2022/07/26 05:29:49;;;;;;;4.80;4.35;;;;;;;32.67;51.63;100667.81;4957692;28;65925;-29
2022/07/26 05:32:21;;;;;;;4.57;4.28;;;;;;;32.40;51.95;100624.84;4955995;28;69902;-29
2022/07/26 05:34:52;;;;;;;5.88;5.15;;;;;;;32.57;50.87;100662.13;4954939;28;65039;-32
2022/07/26 05:37:23;;;;;;;4.63;4.33;;;;;;;32.56;50.10;100655.06;4952090;28;70751;-31
2022/07/26 05:39:54;;;;;;;4.15;3.95;;;;;;;32.56;50.29;100652.34;4953876;28;65408;-31
2022/07/26 05:42:25;;;;;;;4.38;4.03;;;;;;;32.43;48.96;100629.78;4952294;28;71477;-31
2022/07/26 05:44:56;;;;;;;6.93;4.13;;;;;;;32.46;48.83;100634.78;4959588;28;65681;-30
2022/07/26 05:47:29;;;;;;;3.80;3.50;;;;;;;32.45;48.32;100622.22;4955891;28;69505;-30
2022/07/26 05:50:00;;;;;;;4.10;3.80;;;;;;;32.44;48.51;100620.56;4956650;28;65223;-29
2022/07/26 05:52:31;;;;;;;4.03;3.45;;;;;;;32.34;47.93;100612.19;4950540;28;69803;-30
2022/07/26 05:55:02;;;;;;;3.57;3.37;;;;;;;32.24;47.47;100603.81;4955030;28;66486;-30
2022/07/26 05:57:34;;;;;;;4.28;3.97;;;;;;;32.31;46.93;100609.94;5020260;28;68772;-30
2022/07/26 06:00:06;;;;;;;3.63;3.42;;;;;;;32.34;46.42;100603.22;5020744;28;65714;-30
2022/07/26 06:02:40;;;;;;;3.60;3.40;;;;;;;32.34;46.82;100604.03;4958481;28;71051;-31
2022/07/26 06:05:12;;;;;;;3.58;3.10;;;;;;;32.38;47.61;100594.38;4954801;28;65959;-32
2022/07/26 06:07:43;;;;;;;;;;;;;;;32.25;50.52;100591.91;4954585;28;70153;-30
2022/07/26 06:10:14;;;;;;;4.50;3.97;;;;;;;32.61;52.84;100579.16;4956485;28;66302;-31
2022/07/26 06:12:45;;;;;;;6.38;4.60;;;;;;;32.81;54.68;100593.13;5013105;28;69562;-31
2022/07/26 06:15:16;;;;;;;4.85;4.55;;;;;;;32.93;55.87;100580.34;4999881;28;66137;-30
2022/07/26 06:17:46;;;;;;;4.88;4.45;;;;;;;33.06;56.30;100578.44;5005619;28;69918;-29
2022/07/26 06:20:17;;;;;;;6.63;4.93;;;;;;;33.13;56.67;100569.09;4956865;28;66005;-30
2022/07/26 06:22:50;;;;;;;9.20;4.80;;;;;;;33.19;57.66;100561.03;5018269;28;70367;-31
2022/07/26 06:25:21;;;;;;;5.80;5.30;;;;;;;33.25;57.72;100565.47;4955079;28;65486;-30
2022/07/26 06:27:52;;;;;;;5.25;4.80;;;;;;;33.36;58.39;100556.44;5021429;28;69589;-32
2022/07/26 06:30:24;;;;;;;5.13;4.75;;;;;;;33.37;58.41;100553.47;5004558;28;65681;-29
2022/07/26 06:32:55;;;;;;;6.45;5.07;;;;;;;33.44;58.98;100557.94;4954886;28;68992;-30
2022/07/26 06:35:29;;;;;;;7.23;5.23;;;;;;;33.48;59.15;100553.66;4950601;28;66279;-31
2022/07/26 06:38:00;;;;;;;5.13;4.65;;;;;;;33.51;59.66;100543.09;4954389;28;70362;-31
2022/07/26 06:40:32;;;;;;;5.63;5.18;;;;;;;33.55;59.33;100547.00;5039773;28;65691;-29
2022/07/26 06:43:03;;;;;;;5.20;4.80;;;;;;;33.59;59.17;100539.19;4957915;28;69910;-30
2022/07/26 06:45:34;;;;;;;4.90;4.55;;;;;;;33.62;59.64;100535.16;4951813;28;64981;-31
2022/07/26 06:48:05;;;;;;;5.37;4.67;;;;;;;33.61;59.34;100526.16;4953237;28;69808;-30
2022/07/26 06:50:37;;;;;;;7.60;4.40;;;;;;;33.65;59.68;100515.59;4949100;28;66574;-29
2022/07/26 06:53:08;;;;;;;6.85;4.93;;;;;;;33.69;59.61;100506.72;4952694;28;70574;-30
2022/07/26 06:55:39;;;;;;;8.02;4.57;;;;;;;33.65;59.86;100488.41;4958817;28;65378;-30
2022/07/26 06:58:10;;;;;;;;;;;;;;;33.46;60.57;100501.41;4955672;28;70153;-30
2022/07/26 07:00:41;;;;;;;5.03;4.72;;;;;;;33.73;59.80;100496.97;4954904;28;66309;-31
2022/07/26 07:03:11;;;;;;;10.97;4.80;;;;;;;33.76;59.84;100491.03;4946509;28;69369;-31
2022/07/26 07:05:42;;;;;;;5.90;5.30;;;;;;;33.74;60.20;100476.88;4953017;28;66827;-30
2022/07/26 07:08:20;;;;;;;5.80;4.57;;;;;;;33.83;60.29;100476.44;5014448;28;70216;-30
2022/07/26 07:10:52;;;;;;;5.22;4.72;;;;;;;33.84;59.98;100469.91;4955410;28;66891;-30
2022/07/26 07:13:23;;;;;;;5.00;4.53;;;;;;;33.83;59.75;100466.38;4954290;28;69718;-30
2022/07/26 07:15:53;;;;;;;5.80;5.10;;;;;;;33.84;60.14;100461.75;4953791;28;65776;-30
2022/07/26 07:18:24;;;;;;;5.30;4.53;;;;;;;33.86;60.17;100451.47;4954833;28;70002;-31
2022/07/26 07:20:55;;;;;;;5.57;4.95;;;;;;;33.89;60.12;100456.41;4954040;28;66095;-30
2022/07/26 07:23:26;;;;;;;5.65;5.15;;;;;;;33.86;59.89;100435.13;5009772;28;69864;-30
2022/07/26 07:25:57;;;;;;;9.07;5.07;;;;;;;33.88;59.89;100441.13;5024998;28;65677;-29
2022/07/26 07:28:28;;;;;;;5.03;4.50;;;;;;;33.91;60.09;100459.69;5027248;28;70344;-30
2022/07/26 07:31:00;;;;;;;6.43;5.07;;;;;;;33.93;59.98;100447.47;5016456;28;66637;-30
2022/07/26 07:33:31;;;;;;;6.45;5.25;;;;;;;33.92;60.02;100445.00;4958723;28;68963;-30
2022/07/26 07:36:21;;;;;;;4.90;4.50;;;;;;;33.86;59.80;100426.97;4951857;28;66588;-31
2022/07/26 07:38:51;;;;;;;6.27;4.47;;;;;;;33.71;59.69;100406.66;4958432;28;69582;-30
2022/07/26 07:41:22;;;;;;;5.20;4.73;;;;;;;33.87;60.15;100425.88;4958242;28;67176;-30
2022/07/26 07:43:53;;;;;;;5.57;5.18;;;;;;;33.95;59.64;100439.06;5025460;28;70384;-31
2022/07/26 07:46:24;;;;;;;5.15;4.75;;;;;;;33.96;59.87;100436.09;4959757;28;66799;-31
2022/07/26 07:48:55;;;;;;;6.90;5.13;;;;;;;33.96;59.67;100432.53;5023655;28;69929;-31
2022/07/26 07:51:27;;;;;;;4.95;4.55;;;;;;;33.89;59.66;100423.75;4957301;28;66102;-30
2022/07/26 07:53:58;;;;;;;5.60;5.10;;;;;;;33.99;59.47;100429.28;4954442;28;69457;-30
2022/07/26 07:56:34;;;;;;;5.72;5.20;;;;;;;33.98;59.58;100423.03;4956534;28;66211;-30
2022/07/26 07:59:05;;;;;;;9.93;5.37;;;;;;;33.98;59.54;100416.78;4960310;28;69951;-30
2022/07/26 08:01:36;;;;;;;11.48;5.68;;;;;;;33.97;59.41;100406.97;4955674;28;66645;-29
2022/07/26 08:04:09;;;;;;;8.15;5.38;;;;;;;33.98;59.37;100405.91;4958316;28;69148;-30
2022/07/26 08:06:40;;;;;;;12.93;5.20;;;;;;;33.99;59.26;100402.94;4958066;28;65080;-29
2022/07/26 08:09:19;;;;;;;7.40;5.68;;;;;;;34.01;59.35;100394.50;4957127;28;69939;-30
2022/07/26 08:11:50;;;;;;;10.02;5.28;;;;;;;34.01;59.58;100399.94;5024894;28;65865;-31
2022/07/26 08:14:24;;;;;;;5.78;5.45;;;;;;;34.04;59.30;100399.44;4953018;28;44125;-31
2022/07/26 08:16:55;;;;;;;11.23;5.33;;;;;;;34.03;59.41;100386.91;4955499;28;66662;-31
2022/07/26 08:19:26;;;;;;;8.93;5.70;;;;;;;34.03;59.46;100386.91;4955626;28;68623;-30
2022/07/26 08:22:10;;;;;;;9.52;6.20;;;;;;;34.05;59.41;100384.81;4952420;28;66295;-31
2022/07/26 08:24:44;;;;;;;10.57;6.70;;;;;;;34.05;59.14;100376.63;4955964;28;70204;-30
2022/07/26 08:27:15;;;;;;;7.07;6.38;;;;;;;33.62;59.40;100302.06;4949363;28;65745;-31
2022/07/26 08:29:46;;;;;;;7.88;6.18;;;;;;;34.07;58.84;100370.91;4955166;28;70045;-30
2022/07/26 08:32:17;;;;;;;6.70;6.07;;;;;;;34.08;59.31;100372.59;4953598;28;66020;-29
2022/07/26 08:34:48;;;;;;;7.00;6.37;;;;;;;34.05;59.33;100363.03;4958228;28;71548;-31
2022/07/26 08:37:19;;;;;;;8.50;6.23;;;;;;;34.09;59.05;100368.78;4959876;28;67413;-30
2022/07/26 08:39:50;;;;;;;6.50;5.97;;;;;;;34.10;59.15;100368.53;4959490;28;69690;-32
2022/07/26 08:42:22;;;;;;;7.47;6.72;;;;;;;34.04;58.78;100361.34;4957618;28;66490;-31
2022/07/26 08:44:53;;;;;;;7.55;6.95;;;;;;;34.07;58.64;100365.47;4954041;28;68710;-35
2022/07/26 08:47:24;;;;;;;11.10;6.47;;;;;;;34.13;59.08;100376.19;5029070;28;66080;-30
2022/07/26 08:50:14;;;;;;;8.95;7.05;;;;;;;34.09;59.10;100364.16;4952147;28;69858;-30
2022/07/26 08:52:49;;;;;;;8.20;7.38;;;;;;;34.14;58.63;100382.44;4950396;28;65822;-30
2022/07/26 08:55:39;;;;;;;8.95;6.70;;;;;;;34.15;58.90;100384.09;5027388;28;71851;-30
2022/07/26 08:58:39;;;;;;;8.23;7.63;;;;;;;34.19;59.26;100390.69;5040339;28;66376;-31
2022/07/26 09:01:23;;;;;;;8.82;7.47;;;;;;;34.16;59.05;100392.00;4999770;28;69875;-29
2022/07/26 09:04:19;;;;;;;8.55;7.75;;;;;;;34.09;59.41;100396.81;5020529;28;66989;-30
2022/07/26 09:07:12;;;;;;;8.23;7.47;;;;;;;33.78;58.89;100317.50;4954564;28;69754;-29
2022/07/26 09:09:57;;;;;;;7.53;7.07;;;;;;;34.13;58.92;100373.47;4955294;28;65313;-31
2022/07/26 09:12:30;;;;;;;9.13;8.23;;;;;;;34.16;58.72;100369.41;4951171;28;70464;-32
2022/07/26 09:15:03;;;;;;;9.20;8.02;;;;;;;34.17;58.81;100377.31;4956002;28;66489;-30
2022/07/26 09:17:44;;;;;;;8.32;7.53;;;;;;;34.16;58.42;100370.22;4950998;28;69934;-30
2022/07/26 09:20:27;;;;;;;8.55;7.97;;;;;;;33.56;58.88;100267.72;5010157;28;66310;-30
2022/07/26 09:23:12;;;;;;;9.95;7.60;;;;;;;34.16;58.93;100363.97;4955697;28;70217;-29
2022/07/26 09:26:03;;;;;;;9.02;8.32;;;;;;;33.94;58.79;100339.47;5011341;28;65551;-30
2022/07/26 09:28:39;;;;;;;7.78;7.18;;;;;;;34.03;59.26;100351.53;5031944;28;70307;-29
2022/07/26 09:31:22;;;;;;;8.85;8.02;;;;;;;34.12;58.86;100363.63;5024978;28;65765;-30
2022/07/26 09:33:54;;;;;;;8.35;7.65;;;;;;;34.12;59.26;100352.75;5012898;28;70115;-30
2022/07/26 09:36:28;;;;;;;8.82;8.15;;;;;;;34.14;59.20;100355.22;4951832;28;65984;-30
2022/07/26 09:39:03;;;;;;;8.90;8.18;;;;;;;34.14;58.73;100369.66;4954772;28;69908;-30
2022/07/26 09:41:37;;;;;;;9.32;8.32;;;;;;;33.88;59.02;100337.72;5029620;28;66363;-31
2022/07/26 09:44:23;;;;;;;9.10;8.30;;;;;;;33.71;59.26;100314.16;4955537;28;69514;-29
2022/07/26 09:46:58;;;;;;;8.43;7.88;;;;;;;34.14;59.04;100352.50;4953577;28;66731;-30
2022/07/26 09:49:29;;;;;;;9.10;8.32;;;;;;;34.13;58.97;100354.41;4953809;28;70115;-30
2022/07/26 09:52:20;;;;;;;8.57;7.80;;;;;;;34.07;59.06;100398.94;4949703;28;65600;-30
2022/07/26 09:54:51;;;;;;;9.23;8.35;;;;;;;34.10;59.21;100420.25;4954337;28;69584;-30
2022/07/26 09:57:23;;;;;;;9.30;8.50;;;;;;;34.11;59.05;100427.31;4955896;28;66626;-30
2022/07/26 09:59:55;;;;;;;9.40;8.80;;;;;;;34.11;58.96;100415.63;4990090;28;70145;-31
2022/07/26 10:02:29;;;;;;;12.38;8.60;;;;;;;34.10;59.20;100422.13;4952186;28;66576;-30
2022/07/26 10:05:06;;;;;;;12.13;8.77;;;;;;;34.11;59.27;100438.22;4956006;28;69588;-30
2022/07/26 10:07:40;;;;;;;8.75;7.95;;;;;;;34.09;59.22;100445.81;5008449;28;65188;-29
2022/07/26 10:10:36;;;;;;;8.65;8.00;;;;;;;34.03;58.80;100431.28;4957149;28;69926;-30
2022/07/26 10:13:10;;;;;;;8.93;8.27;;;;;;;34.07;59.45;100437.06;4956865;28;66085;-30
2022/07/26 10:15:50;;;;;;;8.73;8.02;;;;;;;34.07;58.84;100447.94;5005891;28;70425;-31
2022/07/26 10:18:37;;;;;;;15.20;10.10;;;;;;;33.87;60.31;100442.22;4951385;28;66818;-28
2022/07/26 10:21:28;;;;;;;19.92;13.60;;;;;;;33.78;60.90;100455.41;4952166;28;70152;-30
2022/07/26 10:24:03;;;;;;;14.80;13.40;;;;;;;33.65;61.21;100467.47;4962455;28;66460;-29
2022/07/26 10:26:39;;;;;;;22.02;14.73;;;;;;;33.60;61.60;100491.88;5020380;28;70166;-30
2022/07/26 10:29:26;;;;;;;22.08;15.98;;;;;;;33.12;62.16;100441.59;4953122;28;66499;-28
2022/07/26 10:32:13;;;;;;;37.10;18.75;;;;;;;33.43;61.54;100519.03;4957955;28;70150;-28
2022/07/26 10:34:47;;;;;;;31.33;19.52;;;;;;;33.34;62.90;100521.31;4957205;28;65486;-29
2022/07/26 10:37:26;;;;;;;29.13;20.38;;;;;;;32.88;63.71;100463.44;4956212;28;70040;-28
2022/07/26 10:40:19;;;;;;;36.97;20.05;;;;;;;32.94;65.09;100519.50;4956975;28;66245;-29
2022/07/26 10:43:14;;;;;;;24.23;17.85;;;;;;;33.01;64.76;100545.72;4955014;28;70437;-29
2022/07/26 10:46:21;;;;;;;17.25;15.30;;;;;;;33.06;64.29;100559.41;5037517;28;65602;-28
2022/07/26 10:49:06;;;;;;;17.35;14.25;;;;;;;32.98;64.39;100555.16;4953304;28;69521;-28
2022/07/26 10:51:40;;;;;;;20.38;13.90;;;;;;;32.95;65.55;100542.06;4955307;28;66484;-29
2022/07/26 10:54:16;;;;;;;15.63;12.38;;;;;;;32.92;64.98;100509.94;4953848;28;70098;-31
2022/07/26 10:57:00;;;;;;;16.30;11.15;;;;;;;33.18;64.73;100533.00;5016206;28;66125;-28
2022/07/26 10:59:35;;;;;;;19.67;12.10;;;;;;;33.35;64.04;100555.63;5014209;28;70663;-29
2022/07/26 11:02:32;;;;;;;20.75;12.57;;;;;;;33.47;64.29;100552.00;4951102;28;66297;-30
2022/07/26 11:05:15;;;;;;;13.93;11.20;;;;;;;32.80;63.62;100452.97;4966503;28;70012;-29
2022/07/26 11:08:09;;;;;;;16.40;11.85;;;;;;;33.22;63.92;100512.44;4959377;28;65583;-29
2022/07/26 11:10:46;;;;;;;12.10;10.75;;;;;;;33.26;63.44;100497.25;4963726;28;69921;-29
2022/07/26 11:13:24;;;;;;;12.00;10.60;;;;;;;33.61;63.00;100547.09;4968487;28;65309;-29
2022/07/26 11:16:02;;;;;;;11.88;10.55;;;;;;;33.68;63.01;100559.44;5014741;28;70004;-29
2022/07/26 11:18:35;;;;;;;14.10;9.52;;;;;;;33.67;62.31;100546.94;4953941;28;66429;-30
2022/07/26 11:21:11;;;;;;;12.55;10.38;;;;;;;33.76;62.31;100545.44;5001415;28;69664;-32
2022/07/26 11:23:44;;;;;;;11.10;9.63;;;;;;;33.68;62.39;100526.81;4957217;28;66703;-29
2022/07/26 11:26:21;;;;;;;9.90;9.00;;;;;;;33.79;63.00;100555.84;5015210;28;69550;-30
2022/07/26 11:29:00;;;;;;;10.95;9.25;;;;;;;33.82;62.59;100565.38;4954175;28;65720;-29
2022/07/26 11:31:41;;;;;;;10.30;9.35;;;;;;;33.86;62.65;100566.53;5014052;28;70088;-29
2022/07/26 11:34:32;;;;;;;9.75;9.10;;;;;;;33.86;62.53;100550.22;4954387;28;65684;-29
2022/07/26 11:37:07;;;;;;;9.18;8.32;;;;;;;33.87;63.06;100562.75;4960938;28;70431;-29
2022/07/26 11:39:39;;;;;;;10.38;8.73;;;;;;;33.89;62.97;100570.66;5010753;28;65056;-29
2022/07/26 11:42:20;;;;;;;13.05;9.60;;;;;;;33.89;63.12;100570.66;4953424;28;70244;-30
2022/07/26 11:44:52;;;;;;;11.05;10.10;;;;;;;33.85;63.26;100572.22;5019410;28;66046;-29
2022/07/26 11:47:34;;;;;;;12.25;10.82;;;;;;;33.79;62.93;100577.59;5012517;28;69908;-29
2022/07/26 11:50:09;;;;;;;11.68;10.48;;;;;;;33.90;63.05;100594.91;4954056;28;66105;-30
2022/07/26 11:52:52;;;;;;;17.55;12.98;;;;;;;33.84;63.03;100595.88;5020124;28;70094;-29
2022/07/26 11:55:39;;;;;;;16.38;13.95;;;;;;;33.88;63.13;100601.66;4959031;28;65761;-29
2022/07/26 11:58:17;;;;;;;17.42;13.60;;;;;;;33.86;63.14;100603.81;4952280;28;69154;-29